createdAt,value
2023-03-12T00:00:24.308Z,-3.16
2023-03-12T00:01:24.303Z,-3.25
2023-03-12T00:02:24.318Z,-3.30
2023-03-12T00:03:24.399Z,-3.30
2023-03-12T00:04:24.282Z,-3.20
2023-03-12T00:05:24.272Z,-3.34
2023-03-12T00:06:24.256Z,-3.34
2023-03-12T00:07:24.258Z,-3.31
2023-03-12T00:08:24.272Z,-3.30
2023-03-12T00:09:24.232Z,-3.31
2023-03-12T00:10:24.235Z,-3.34
2023-03-12T00:11:24.223Z,-3.19
2023-03-12T00:12:24.227Z,-3.31
2023-03-12T00:13:24.231Z,-3.22
2023-03-12T00:14:24.196Z,-3.23
2023-03-12T00:15:24.196Z,-3.19
2023-03-12T00:16:24.249Z,-3.27
2023-03-12T00:17:24.176Z,-3.17
2023-03-12T00:18:24.202Z,-3.15
2023-03-12T00:19:24.169Z,-3.17
2023-03-12T00:20:24.159Z,-3.09
2023-03-12T00:21:24.145Z,-3.12
2023-03-12T00:22:24.142Z,-2.97
2023-03-12T00:23:24.154Z,-2.98
2023-03-12T00:24:24.151Z,-2.99
2023-03-12T00:25:24.126Z,-2.89
2023-03-12T00:26:24.112Z,-2.94
2023-03-12T00:27:24.106Z,-2.84
2023-03-12T00:28:24.119Z,-2.78
2023-03-12T00:29:24.089Z,-2.76
2023-03-12T00:30:24.087Z,-2.69
2023-03-12T00:31:24.140Z,-2.74
2023-03-12T00:32:24.111Z,-2.62
2023-03-12T00:33:24.090Z,-2.76
2023-03-12T00:34:24.046Z,-2.73
2023-03-12T00:35:24.143Z,-2.74
2023-03-12T00:36:24.023Z,-2.76
2023-03-12T00:37:24.015Z,-2.63
2023-03-12T00:38:24.049Z,-2.71
2023-03-12T00:39:24.026Z,-2.71
2023-03-12T00:40:23.996Z,-2.71
2023-03-12T00:41:23.993Z,-2.60
2023-03-12T00:42:23.985Z,-2.62
2023-03-12T00:43:23.999Z,-2.69
2023-03-12T00:44:23.966Z,-2.56
2023-03-12T00:45:23.959Z,-2.58
2023-03-12T00:46:23.983Z,-2.63
2023-03-12T00:47:23.971Z,-2.58
2023-03-12T00:48:23.972Z,-2.77
2023-03-12T00:49:23.929Z,-2.60
2023-03-12T00:50:23.921Z,-2.63
2023-03-12T00:51:23.922Z,-2.62
2023-03-12T00:52:23.917Z,-2.60
2023-03-12T00:53:23.932Z,-2.70
2023-03-12T00:54:23.898Z,-2.58
2023-03-12T00:55:23.900Z,-2.71
2023-03-12T00:56:23.883Z,-2.60
2023-03-12T00:57:23.882Z,-2.65
2023-03-12T00:58:23.892Z,-2.66
2023-03-12T00:59:23.861Z,-2.69
2023-03-12T01:00:23.936Z,-2.66
2023-03-12T01:01:23.866Z,-2.74
2023-03-12T01:02:23.834Z,-2.69
2023-03-12T01:03:23.871Z,-2.71
2023-03-12T01:04:23.932Z,-2.59
2023-03-12T01:05:23.814Z,-2.71
2023-03-12T01:06:23.812Z,-2.62
2023-03-12T01:07:23.811Z,-2.62
2023-03-12T01:08:23.823Z,-2.65
2023-03-12T01:09:23.788Z,-2.77
2023-03-12T01:10:23.798Z,-2.63
2023-03-12T01:11:23.775Z,-2.70
2023-03-12T01:12:23.765Z,-2.63
2023-03-12T01:13:23.778Z,-2.70
2023-03-12T01:14:23.751Z,-2.66
2023-03-12T01:15:23.746Z,-2.65
2023-03-12T01:16:23.800Z,-2.55
2023-03-12T01:17:23.725Z,-2.66
2023-03-12T01:18:23.748Z,-2.69
2023-03-12T01:19:23.834Z,-2.60
2023-03-12T01:20:23.709Z,-2.56
2023-03-12T01:21:23.693Z,-2.66
2023-03-12T01:22:24.688Z,-2.63
2023-03-12T01:23:23.707Z,-2.59
2023-03-12T01:24:23.676Z,-2.59
2023-03-12T01:25:23.670Z,-2.45
2023-03-12T01:26:23.658Z,-2.41
2023-03-12T01:27:23.660Z,-2.56
2023-03-12T01:28:23.681Z,-2.38
2023-03-12T01:29:23.640Z,-2.40
2023-03-12T01:30:23.674Z,-2.48
2023-03-12T01:31:23.664Z,-2.42
2023-03-12T01:32:23.675Z,-2.35
2023-03-12T01:33:23.645Z,-2.37
2023-03-12T01:34:23.613Z,-2.32
2023-03-12T01:35:23.635Z,-2.42
2023-03-12T01:36:23.634Z,-2.30
2023-03-12T01:37:23.583Z,-2.41
2023-03-12T01:38:23.601Z,-2.34
2023-03-12T01:39:23.568Z,-2.32
2023-03-12T01:40:23.559Z,-2.38
2023-03-12T01:41:23.560Z,-2.30
2023-03-12T01:42:23.556Z,-2.22
2023-03-12T01:43:23.557Z,-2.25
2023-03-12T01:44:23.529Z,-2.25
2023-03-12T01:45:23.526Z,-2.26
2023-03-12T01:46:23.512Z,-2.22
2023-03-12T01:47:23.499Z,-2.12
2023-03-12T01:48:23.520Z,-2.16
2023-03-12T01:49:23.486Z,-2.16
2023-03-12T01:50:23.481Z,-2.16
2023-03-12T01:51:23.474Z,-2.15
2023-03-12T01:52:23.459Z,-2.10
2023-03-12T01:53:23.485Z,-2.10
2023-03-12T01:54:23.452Z,-2.21
2023-03-12T01:55:23.448Z,-2.07
2023-03-12T01:56:23.435Z,-2.07
2023-03-12T01:57:23.425Z,-2.07
2023-03-12T01:58:23.424Z,-2.13
2023-03-12T01:59:23.447Z,-2.12
2023-03-12T02:00:23.420Z,-2.10
2023-03-12T02:01:23.447Z,-2.05
2023-03-12T02:02:23.386Z,-2.04
2023-03-12T02:03:23.385Z,-2.08
2023-03-12T02:04:23.513Z,-2.05
2023-03-12T02:05:23.381Z,-2.13
2023-03-12T02:06:23.367Z,-2.04
2023-03-12T02:07:23.353Z,-2.10
2023-03-12T02:08:23.351Z,-2.07
2023-03-12T02:09:23.365Z,-2.15
2023-03-12T02:10:23.340Z,-2.12
2023-03-12T02:11:23.322Z,-2.15
2023-03-12T02:12:23.304Z,-2.08
2023-03-12T02:13:24.318Z,-2.02
2023-03-12T02:14:23.325Z,-1.98
2023-03-12T02:15:23.290Z,-2.13
2023-03-12T02:16:23.330Z,-2.07
2023-03-12T02:17:23.276Z,-2.13
2023-03-12T02:18:23.269Z,-2.07
2023-03-12T02:19:23.282Z,-2.08
2023-03-12T02:20:23.255Z,-1.98
2023-03-12T02:21:23.244Z,-1.98
2023-03-12T02:22:23.241Z,-1.98
2023-03-12T02:23:24.234Z,-1.97
2023-03-12T02:24:23.256Z,-1.95
2023-03-12T02:25:23.216Z,-1.90
2023-03-12T02:26:23.216Z,-1.86
2023-03-12T02:27:23.206Z,-1.87
2023-03-12T02:28:23.195Z,-1.98
2023-03-12T02:29:23.220Z,-1.92
2023-03-12T02:30:23.175Z,-1.89
2023-03-12T02:31:23.224Z,-1.95
2023-03-12T02:32:23.256Z,-1.90
2023-03-12T02:33:23.167Z,-1.97
2023-03-12T02:34:23.186Z,-2.01
2023-03-12T02:35:23.135Z,-1.87
2023-03-12T02:36:23.138Z,-1.95
2023-03-12T02:37:23.126Z,-1.89
2023-03-12T02:38:23.115Z,-1.82
2023-03-12T02:39:23.129Z,-1.84
2023-03-12T02:40:23.102Z,-1.89
2023-03-12T02:41:23.103Z,-1.92
2023-03-12T02:42:23.089Z,-1.94
2023-03-12T02:43:23.086Z,-1.86
2023-03-12T02:44:23.107Z,-2.00
2023-03-12T02:45:23.068Z,-2.01
2023-03-12T02:46:23.145Z,-1.97
2023-03-12T02:47:23.056Z,-2.12
2023-03-12T02:48:23.047Z,-2.07
2023-03-12T02:49:23.073Z,-2.05
2023-03-12T02:50:23.038Z,-2.13
2023-03-12T02:51:23.021Z,-2.07
2023-03-12T02:52:23.030Z,-2.10
2023-03-12T02:53:23.012Z,-2.18
2023-03-12T02:54:23.032Z,-2.19
2023-03-12T02:55:22.998Z,-2.15
2023-03-12T02:56:22.997Z,-2.04
2023-03-12T02:57:22.975Z,-2.15
2023-03-12T02:58:22.970Z,-2.10
2023-03-12T02:59:22.999Z,-2.07
2023-03-12T03:00:22.952Z,-2.01
2023-03-12T03:01:23.033Z,-1.98
2023-03-12T03:02:22.937Z,-2.01
2023-03-12T03:03:22.932Z,-2.05
2023-03-12T03:04:22.981Z,-1.97
2023-03-12T03:05:22.913Z,-2.02
2023-03-12T03:06:22.914Z,-1.89
2023-03-12T03:07:22.900Z,-1.95
2023-03-12T03:08:22.905Z,-2.00
2023-03-12T03:09:22.913Z,-1.90
2023-03-12T03:10:22.876Z,-1.82
2023-03-12T03:11:22.873Z,-1.89
2023-03-12T03:12:22.870Z,-1.90
2023-03-12T03:13:22.853Z,-1.82
2023-03-12T03:14:22.872Z,-1.74
2023-03-12T03:15:22.838Z,-1.76
2023-03-12T03:16:22.838Z,-1.77
2023-03-12T03:17:22.832Z,-1.69
2023-03-12T03:18:22.823Z,-1.72
2023-03-12T03:19:22.838Z,-1.79
2023-03-12T03:20:22.811Z,-1.80
2023-03-12T03:21:22.823Z,-1.86
2023-03-12T03:22:22.819Z,-1.84
2023-03-12T03:23:22.790Z,-1.80
2023-03-12T03:24:22.813Z,-1.80
2023-03-12T03:25:22.774Z,-1.77
2023-03-12T03:26:22.794Z,-1.83
2023-03-12T03:27:22.759Z,-1.86
2023-03-12T03:28:22.759Z,-1.89
2023-03-12T03:29:22.790Z,-1.84
2023-03-12T03:30:22.754Z,-1.92
2023-03-12T03:31:22.777Z,-2.01
2023-03-12T03:32:22.785Z,-1.92
2023-03-12T03:33:22.721Z,-1.98
2023-03-12T03:34:22.730Z,-2.02
2023-03-12T03:35:22.706Z,-2.10
2023-03-12T03:36:22.691Z,-2.05
2023-03-12T03:37:22.688Z,-2.05
2023-03-12T03:38:22.682Z,-2.10
2023-03-12T03:39:22.700Z,-2.08
2023-03-12T03:40:22.661Z,-2.04
2023-03-12T03:41:22.652Z,-2.05
2023-03-12T03:42:22.651Z,-2.07
2023-03-12T03:43:22.647Z,-2.05
2023-03-12T03:44:22.663Z,-2.16
2023-03-12T03:45:22.630Z,-2.12
2023-03-12T03:46:22.650Z,-2.12
2023-03-12T03:47:23.603Z,-2.22
2023-03-12T03:48:22.598Z,-2.18
2023-03-12T03:49:22.626Z,-2.18
2023-03-12T03:50:22.592Z,-2.30
2023-03-12T03:51:22.580Z,-2.21
2023-03-12T03:52:22.571Z,-2.13
2023-03-12T03:53:22.574Z,-2.13
2023-03-12T03:54:22.566Z,-2.13
2023-03-12T03:55:22.581Z,-2.13
2023-03-12T03:56:22.543Z,-2.19
2023-03-12T03:57:22.546Z,-2.15
2023-03-12T03:58:22.532Z,-2.08
2023-03-12T03:59:22.525Z,-2.05
2023-03-12T04:00:22.551Z,-2.10
2023-03-12T04:01:22.505Z,-2.08
2023-03-12T04:02:22.501Z,-2.12
2023-03-12T04:03:22.530Z,-2.04
2023-03-12T04:04:22.487Z,-2.02
2023-03-12T04:05:22.520Z,-1.98
2023-03-12T04:06:22.488Z,-2.15
2023-03-12T04:07:22.471Z,-2.02
2023-03-12T04:08:22.448Z,-2.01
2023-03-12T04:09:23.449Z,-2.15
2023-03-12T04:10:22.474Z,-1.90
2023-03-12T04:11:22.442Z,-1.86
2023-03-12T04:12:22.433Z,-1.98
2023-03-12T04:13:22.422Z,-1.98
2023-03-12T04:14:22.419Z,-1.98
2023-03-12T04:15:22.434Z,-2.04
2023-03-12T04:16:22.433Z,-1.98
2023-03-12T04:17:22.396Z,-1.97
2023-03-12T04:18:22.451Z,-2.01
2023-03-12T04:19:22.386Z,-1.92
2023-03-12T04:20:22.399Z,-2.00
2023-03-12T04:21:22.366Z,-1.97
2023-03-12T04:22:22.342Z,-1.98
2023-03-12T04:23:23.344Z,-2.01
2023-03-12T04:24:22.350Z,-2.05
2023-03-12T04:25:22.369Z,-1.92
2023-03-12T04:26:22.324Z,-1.97
2023-03-12T04:27:22.321Z,-1.95
2023-03-12T04:28:22.310Z,-1.98
2023-03-12T04:29:22.306Z,-1.89
2023-03-12T04:30:22.322Z,-1.94
2023-03-12T04:31:22.375Z,-1.92
2023-03-12T04:32:22.289Z,-1.89
2023-03-12T04:33:22.283Z,-1.83
2023-03-12T04:34:22.268Z,-1.84
2023-03-12T04:35:22.282Z,-1.80
2023-03-12T04:36:22.254Z,-1.79
2023-03-12T04:37:22.246Z,-1.80
2023-03-12T04:38:22.244Z,-1.82
2023-03-12T04:39:22.237Z,-1.80
2023-03-12T04:40:22.253Z,-1.68
2023-03-12T04:41:22.214Z,-1.74
2023-03-12T04:42:22.210Z,-1.82
2023-03-12T04:43:22.206Z,-1.77
2023-03-12T04:44:22.204Z,-1.72
2023-03-12T04:45:22.211Z,-1.71
2023-03-12T04:46:22.230Z,-1.61
2023-03-12T04:47:22.183Z,-1.68
2023-03-12T04:48:22.170Z,-1.61
2023-03-12T04:49:22.153Z,-1.61
2023-03-12T04:50:22.186Z,-1.54
2023-03-12T04:51:22.153Z,-1.56
2023-03-12T04:52:22.140Z,-1.61
2023-03-12T04:53:22.199Z,-1.53
2023-03-12T04:54:22.127Z,-1.59
2023-03-12T04:55:22.146Z,-1.50
2023-03-12T04:56:22.115Z,-1.58
2023-03-12T04:57:22.106Z,-1.59
2023-03-12T04:58:22.098Z,-1.61
2023-03-12T04:59:22.087Z,-1.58
2023-03-12T05:00:22.109Z,-1.51
2023-03-12T05:01:22.077Z,-1.53
2023-03-12T05:02:22.071Z,-1.44
2023-03-12T05:03:22.063Z,-1.58
2023-03-12T05:04:22.055Z,-1.51
2023-03-12T05:05:22.068Z,-1.50
2023-03-12T05:06:22.056Z,-1.46
2023-03-12T05:07:22.029Z,-1.44
2023-03-12T05:08:22.032Z,-1.43
2023-03-12T05:09:22.017Z,-1.30
2023-03-12T05:10:22.028Z,-1.37
2023-03-12T05:11:22.003Z,-1.30
2023-03-12T05:12:21.994Z,-1.29
2023-03-12T05:13:21.992Z,-1.32
2023-03-12T05:14:21.976Z,-1.37
2023-03-12T05:15:22.001Z,-1.40
2023-03-12T05:16:22.028Z,-1.32
2023-03-12T05:17:21.959Z,-1.27
2023-03-12T05:18:21.955Z,-1.38
2023-03-12T05:19:21.954Z,-1.32
2023-03-12T05:20:21.984Z,-1.30
2023-03-12T05:21:21.933Z,-1.44
2023-03-12T05:22:21.914Z,-1.29
2023-03-12T05:23:21.908Z,-1.35
2023-03-12T05:24:21.909Z,-1.30
2023-03-12T05:25:21.937Z,-1.32
2023-03-12T05:26:21.903Z,-1.27
2023-03-12T05:27:21.880Z,-1.26
2023-03-12T05:28:21.870Z,-1.32
2023-03-12T05:29:21.873Z,-1.27
2023-03-12T05:30:21.880Z,-1.23
2023-03-12T05:31:21.917Z,-1.33
2023-03-12T05:32:21.888Z,-1.25
2023-03-12T05:33:21.838Z,-1.17
2023-03-12T05:34:21.818Z,-1.25
2023-03-12T05:35:21.844Z,-1.26
2023-03-12T05:36:21.821Z,-1.26
2023-03-12T05:37:21.802Z,-1.30
2023-03-12T05:38:21.797Z,-1.22
2023-03-12T05:39:21.774Z,-1.19
2023-03-12T05:40:22.806Z,-1.23
2023-03-12T05:41:21.776Z,-1.17
2023-03-12T05:42:21.765Z,-1.30
2023-03-12T05:43:21.754Z,-1.22
2023-03-12T05:44:21.759Z,-1.23
2023-03-12T05:45:21.763Z,-1.33
2023-03-12T05:46:21.733Z,-1.29
2023-03-12T05:47:21.722Z,-1.23
2023-03-12T05:48:21.720Z,-1.35
2023-03-12T05:49:21.716Z,-1.38
2023-03-12T05:50:21.745Z,-1.37
2023-03-12T05:51:21.714Z,-1.19
2023-03-12T05:52:21.692Z,-1.27
2023-03-12T05:53:21.690Z,-1.32
2023-03-12T05:54:21.672Z,-1.29
2023-03-12T05:55:21.687Z,-1.27
2023-03-12T05:56:21.662Z,-1.22
2023-03-12T05:57:21.649Z,-1.22
2023-03-12T05:58:21.645Z,-1.22
2023-03-12T05:59:21.623Z,-1.15
2023-03-12T06:00:22.656Z,-1.27
2023-03-12T06:01:21.621Z,-1.25
2023-03-12T06:02:21.716Z,-1.12
2023-03-12T06:03:21.620Z,-1.25
2023-03-12T06:04:21.599Z,-1.19
2023-03-12T06:05:21.633Z,-1.15
2023-03-12T06:06:21.581Z,-1.12
2023-03-12T06:07:21.569Z,-1.11
2023-03-12T06:08:21.567Z,-0.99
2023-03-12T06:09:21.557Z,-1.04
2023-03-12T06:10:21.587Z,-1.05
2023-03-12T06:11:21.538Z,-1.11
2023-03-12T06:12:21.546Z,-1.02
2023-03-12T06:13:21.528Z,-0.93
2023-03-12T06:14:21.514Z,-0.94
2023-03-12T06:15:21.510Z,-0.89
2023-03-12T06:16:21.617Z,-0.85
2023-03-12T06:17:21.505Z,-0.82
2023-03-12T06:18:21.490Z,-0.68
2023-03-12T06:19:21.486Z,-0.78
2023-03-12T06:20:21.498Z,-0.68
2023-03-12T06:21:21.490Z,-0.65
2023-03-12T06:22:21.460Z,-0.59
2023-03-12T06:23:21.697Z,-0.68
2023-03-12T06:24:22.448Z,-0.67
2023-03-12T06:25:21.434Z,-0.61
2023-03-12T06:26:21.466Z,-0.61
2023-03-12T06:27:21.415Z,-0.57
2023-03-12T06:28:21.414Z,-0.50
2023-03-12T06:29:21.405Z,-0.50
2023-03-12T06:30:21.411Z,-0.39
2023-03-12T06:31:21.456Z,-0.35
2023-03-12T06:32:21.409Z,-0.29
2023-03-12T06:33:21.372Z,-0.35
2023-03-12T06:34:21.371Z,-0.31
2023-03-12T06:35:21.394Z,-0.29
2023-03-12T06:36:21.367Z,-0.31
2023-03-12T06:37:21.346Z,-0.31
2023-03-12T06:38:21.338Z,-0.18
2023-03-12T06:39:21.317Z,-0.15
2023-03-12T06:40:22.318Z,-0.10
2023-03-12T06:41:21.336Z,-0.06
2023-03-12T06:42:21.303Z,0.05
2023-03-12T06:43:21.295Z,0.08
2023-03-12T06:44:21.286Z,0.15
2023-03-12T06:45:21.283Z,0.10
2023-03-12T06:46:21.326Z,0.19
2023-03-12T06:47:21.268Z,0.25
2023-03-12T06:48:21.266Z,0.36
2023-03-12T06:49:21.264Z,0.23
2023-03-12T06:50:21.244Z,0.22
2023-03-12T06:51:21.262Z,0.31
2023-03-12T06:52:21.226Z,0.25
2023-03-12T06:53:21.229Z,0.28
2023-03-12T06:54:21.217Z,0.23
2023-03-12T06:55:21.208Z,0.28
2023-03-12T06:56:21.223Z,0.29
2023-03-12T06:57:21.195Z,0.29
2023-03-12T06:58:21.187Z,0.43
2023-03-12T06:59:21.178Z,0.34
2023-03-12T07:00:21.172Z,0.36
2023-03-12T07:01:21.186Z,0.40
2023-03-12T07:02:21.236Z,0.40
2023-03-12T07:03:21.147Z,0.46
2023-03-12T07:04:21.146Z,0.55
2023-03-12T07:05:21.171Z,0.62
2023-03-12T07:06:21.154Z,0.68
2023-03-12T07:07:21.121Z,0.94
2023-03-12T07:08:21.114Z,0.94
2023-03-12T07:09:21.105Z,1.14
2023-03-12T07:10:21.098Z,1.24
2023-03-12T07:11:21.116Z,1.35
2023-03-12T07:12:21.090Z,1.42
2023-03-12T07:13:21.080Z,1.45
2023-03-12T07:14:21.066Z,1.45
2023-03-12T07:15:21.059Z,1.63
2023-03-12T07:16:21.111Z,1.74
2023-03-12T07:17:21.064Z,1.85
2023-03-12T07:18:21.043Z,1.99
2023-03-12T07:19:21.035Z,2.08
2023-03-12T07:20:21.028Z,2.11
2023-03-12T07:21:21.044Z,2.28
2023-03-12T07:22:21.006Z,2.28
2023-03-12T07:23:21.006Z,2.44
2023-03-12T07:24:20.997Z,2.67
2023-03-12T07:25:21.012Z,2.80
2023-03-12T07:26:21.043Z,2.89
2023-03-12T07:27:20.968Z,2.93
2023-03-12T07:28:20.961Z,3.00
2023-03-12T07:29:20.966Z,2.92
2023-03-12T07:30:20.944Z,2.89
2023-03-12T07:31:21.012Z,2.83
2023-03-12T07:32:20.969Z,2.86
2023-03-12T07:33:21.006Z,2.90
2023-03-12T07:34:21.030Z,3.03
2023-03-12T07:35:21.013Z,3.22
2023-03-12T07:36:21.024Z,3.45
2023-03-12T07:37:20.893Z,3.53
2023-03-12T07:38:20.913Z,3.58
2023-03-12T07:39:20.888Z,3.53
2023-03-12T07:40:20.865Z,3.45
2023-03-12T07:41:20.999Z,3.19
2023-03-12T07:42:20.967Z,3.00
2023-03-12T07:43:21.883Z,2.89
2023-03-12T07:44:21.835Z,2.92
2023-03-12T07:45:20.864Z,2.87
2023-03-12T07:46:20.884Z,2.83
2023-03-12T07:47:23.959Z,2.82
2023-03-12T07:48:21.859Z,2.65
2023-03-12T07:49:20.798Z,2.72
2023-03-12T07:50:20.881Z,2.87
2023-03-12T07:51:20.807Z,2.92
2023-03-12T07:52:20.854Z,2.93
2023-03-12T07:53:20.761Z,3.04
2023-03-12T07:54:20.914Z,3.13
2023-03-12T07:55:20.844Z,3.21
2023-03-12T07:56:20.851Z,3.21
2023-03-12T07:57:20.753Z,3.07
2023-03-12T07:58:20.799Z,3.22
2023-03-12T07:59:21.760Z,3.14
2023-03-12T08:00:20.759Z,3.18
2023-03-12T08:01:20.768Z,3.25
2023-03-12T08:02:20.801Z,3.21
2023-03-12T08:03:20.992Z,3.34
2023-03-12T08:04:20.733Z,3.34
2023-03-12T08:05:20.673Z,3.47
2023-03-12T08:06:20.813Z,3.50
2023-03-12T08:07:20.744Z,3.63
2023-03-12T08:08:20.660Z,3.59
2023-03-12T08:09:20.644Z,3.62
2023-03-12T08:10:20.698Z,3.58
2023-03-12T08:11:20.646Z,3.45
2023-03-12T08:12:20.644Z,3.42
2023-03-12T08:13:20.675Z,3.42
2023-03-12T08:14:20.610Z,3.40
2023-03-12T08:15:20.588Z,3.25
2023-03-12T08:16:20.680Z,3.28
2023-03-12T08:17:20.574Z,3.31
2023-03-12T08:18:20.568Z,3.41
2023-03-12T08:19:20.562Z,3.41
2023-03-12T08:20:20.557Z,3.32
2023-03-12T08:21:20.567Z,3.28
2023-03-12T08:22:20.539Z,3.25
2023-03-12T08:23:20.532Z,3.28
2023-03-12T08:24:20.529Z,3.28
2023-03-12T08:25:20.556Z,3.25
2023-03-12T08:26:20.533Z,3.25
2023-03-12T08:27:20.494Z,3.23
2023-03-12T08:28:20.488Z,3.26
2023-03-12T08:29:20.487Z,3.34
2023-03-12T08:30:20.479Z,3.31
2023-03-12T08:31:20.515Z,3.36
2023-03-12T08:32:20.557Z,3.32
2023-03-12T08:33:20.458Z,3.41
2023-03-12T08:34:20.450Z,3.53
2023-03-12T08:35:20.439Z,3.59
2023-03-12T08:36:22.378Z,3.68
2023-03-12T08:37:21.426Z,3.77
2023-03-12T08:38:20.421Z,3.88
2023-03-12T08:39:20.408Z,4.05
2023-03-12T08:40:20.405Z,4.17
2023-03-12T08:41:20.423Z,4.30
2023-03-12T08:42:20.392Z,4.34
2023-03-12T08:43:20.390Z,4.44
2023-03-12T08:44:20.390Z,4.31
2023-03-12T08:45:20.373Z,4.38
2023-03-12T08:46:20.420Z,4.35
2023-03-12T08:47:20.352Z,4.41
2023-03-12T08:48:20.339Z,4.44
2023-03-12T08:49:20.332Z,4.23
2023-03-12T08:50:20.330Z,4.19
2023-03-12T08:51:20.352Z,4.13
2023-03-12T08:52:20.319Z,4.16
2023-03-12T08:53:20.313Z,4.26
2023-03-12T08:54:20.300Z,4.16
2023-03-12T08:55:20.292Z,4.37
2023-03-12T08:56:20.324Z,4.14
2023-03-12T08:57:20.280Z,4.23
2023-03-12T08:58:20.265Z,4.24
2023-03-12T08:59:20.261Z,4.31
2023-03-12T09:00:20.249Z,4.32
2023-03-12T09:01:20.269Z,4.42
2023-03-12T09:02:20.242Z,4.52
2023-03-12T09:03:20.259Z,4.66
2023-03-12T09:04:20.295Z,4.77
2023-03-12T09:05:20.213Z,4.70
2023-03-12T09:06:20.232Z,4.94
2023-03-12T09:07:20.204Z,5.12
2023-03-12T09:08:20.193Z,5.33
2023-03-12T09:09:20.181Z,5.39
2023-03-12T09:10:20.178Z,5.41
2023-03-12T09:11:20.168Z,5.47
2023-03-12T09:12:20.185Z,5.41
2023-03-12T09:13:20.156Z,5.43
2023-03-12T09:15:00.976Z,5.30
2023-03-12T09:15:22.133Z,5.26
2023-03-12T09:16:20.144Z,5.15
2023-03-12T09:17:20.146Z,5.00
2023-03-12T09:18:20.116Z,5.02
2023-03-12T09:19:20.103Z,4.92
2023-03-12T09:20:20.109Z,4.86
2023-03-12T09:21:20.084Z,4.77
2023-03-12T09:22:20.099Z,4.75
2023-03-12T09:23:20.070Z,4.75
2023-03-12T09:24:20.063Z,4.75
2023-03-12T09:25:20.051Z,4.87
2023-03-12T09:26:20.039Z,4.75
2023-03-12T09:27:20.059Z,4.89
2023-03-12T09:28:20.026Z,4.93
2023-03-12T09:29:20.018Z,4.92
2023-03-12T09:30:20.122Z,4.86
2023-03-12T09:31:20.051Z,4.93
2023-03-12T09:32:20.058Z,5.29
2023-03-12T09:33:19.993Z,5.23
2023-03-12T09:34:19.982Z,5.21
2023-03-12T09:35:19.970Z,5.11
2023-03-12T09:36:19.957Z,5.17
2023-03-12T09:37:22.393Z,5.17
2023-03-12T09:38:19.944Z,5.26
2023-03-12T09:39:19.935Z,5.25
2023-03-12T09:40:19.928Z,5.28
2023-03-12T09:41:19.908Z,5.25
2023-03-12T09:42:20.939Z,5.25
2023-03-12T09:43:19.910Z,5.28
2023-03-12T09:44:19.897Z,5.28
2023-03-12T09:45:19.893Z,5.25
2023-03-12T09:46:19.933Z,5.18
2023-03-12T09:47:19.901Z,5.15
2023-03-12T09:48:19.865Z,5.21
2023-03-12T09:49:19.868Z,5.18
2023-03-12T09:50:19.850Z,5.20
2023-03-12T09:51:19.840Z,5.29
2023-03-12T09:52:19.857Z,5.39
2023-03-12T09:53:19.829Z,5.25
2023-03-12T09:54:19.819Z,5.26
2023-03-12T09:55:19.817Z,5.20
2023-03-12T09:56:19.800Z,5.17
2023-03-12T09:57:19.831Z,5.18
2023-03-12T09:58:19.787Z,5.23
2023-03-12T09:59:19.776Z,5.30
2023-03-12T10:00:19.778Z,5.25
2023-03-12T10:01:19.764Z,5.23
2023-03-12T10:02:19.784Z,5.33
2023-03-12T10:03:19.810Z,5.35
2023-03-12T10:04:19.781Z,5.32
2023-03-12T10:05:19.787Z,5.38
2023-03-12T10:06:19.781Z,5.41
2023-03-12T10:07:19.743Z,5.39
2023-03-12T10:08:26.272Z,5.29
2023-03-12T10:09:21.701Z,5.17
2023-03-12T10:10:19.698Z,5.15
2023-03-12T10:11:19.711Z,5.07
2023-03-12T10:12:19.734Z,5.15
2023-03-12T10:13:19.676Z,5.17
2023-03-12T10:14:23.856Z,5.14
2023-03-12T10:15:20.652Z,5.20
2023-03-12T10:16:19.681Z,5.28
2023-03-12T10:17:19.661Z,5.21
2023-03-12T10:18:19.707Z,5.25
2023-03-12T10:19:19.621Z,5.26
2023-03-12T10:20:19.616Z,5.35
2023-03-12T10:21:19.604Z,5.46
2023-03-12T10:22:19.625Z,5.39
2023-03-12T10:23:19.581Z,5.50
2023-03-12T10:24:20.583Z,5.48
2023-03-12T10:25:19.595Z,5.53
2023-03-12T10:26:19.573Z,5.51
2023-03-12T10:27:19.585Z,5.39
2023-03-12T10:28:19.559Z,5.47
2023-03-12T10:29:19.544Z,5.39
2023-03-12T10:30:19.541Z,5.33
2023-03-12T10:31:19.577Z,5.26
2023-03-12T10:32:19.575Z,5.14
2023-03-12T10:33:19.515Z,5.04
2023-03-12T10:34:19.507Z,5.15
2023-03-12T10:35:21.785Z,5.14
2023-03-12T10:36:20.492Z,5.18
2023-03-12T10:37:19.515Z,5.29
2023-03-12T10:38:19.481Z,5.29
2023-03-12T10:39:19.469Z,5.28
2023-03-12T10:40:19.486Z,5.35
2023-03-12T10:41:19.452Z,5.28
2023-03-12T10:42:19.503Z,5.20
2023-03-12T10:43:19.446Z,5.02
2023-03-12T10:44:19.435Z,4.99
2023-03-12T10:45:19.424Z,5.17
2023-03-12T10:46:19.439Z,5.11
2023-03-12T10:47:19.447Z,5.08
2023-03-12T10:48:19.400Z,5.12
2023-03-12T10:49:19.391Z,5.14
2023-03-12T10:50:19.381Z,5.23
2023-03-12T10:51:20.392Z,5.04
2023-03-12T10:52:19.368Z,5.02
2023-03-12T10:53:19.386Z,5.07
2023-03-12T10:54:19.354Z,5.11
2023-03-12T10:55:19.352Z,5.14
2023-03-12T10:56:19.363Z,5.23
2023-03-12T10:57:19.370Z,5.15
2023-03-12T10:58:19.325Z,5.25
2023-03-12T10:59:19.327Z,5.25
2023-03-12T11:00:19.310Z,5.28
2023-03-12T11:01:19.346Z,5.15
2023-03-12T11:02:19.302Z,5.12
2023-03-12T11:03:19.329Z,5.11
2023-03-12T11:04:19.299Z,5.08
2023-03-12T11:05:19.283Z,5.10
2023-03-12T11:06:19.311Z,5.07
2023-03-12T11:07:19.259Z,5.17
2023-03-12T11:08:19.320Z,5.11
2023-03-12T11:09:19.233Z,5.00
2023-03-12T11:10:19.246Z,4.99
2023-03-12T11:11:19.225Z,4.96
2023-03-12T11:12:19.215Z,4.99
2023-03-12T11:13:19.234Z,4.89
2023-03-12T11:14:19.244Z,4.87
2023-03-12T11:15:19.200Z,4.82
2023-03-12T11:16:19.266Z,4.70
2023-03-12T11:17:19.179Z,4.68
2023-03-12T11:18:19.200Z,4.73
2023-03-12T11:19:19.164Z,4.70
2023-03-12T11:20:19.154Z,4.68
2023-03-12T11:21:19.151Z,4.67
2023-03-12T11:22:19.134Z,4.78
2023-03-12T11:23:19.157Z,4.70
2023-03-12T11:24:19.120Z,4.75
2023-03-12T11:25:19.113Z,4.62
2023-03-12T11:26:19.103Z,4.59
2023-03-12T11:27:19.099Z,4.49
2023-03-12T11:28:19.142Z,4.50
2023-03-12T11:29:19.130Z,4.56
2023-03-12T11:30:19.096Z,4.41
2023-03-12T11:31:19.157Z,4.44
2023-03-12T11:32:19.114Z,4.42
2023-03-12T11:33:19.071Z,4.49
2023-03-12T11:34:19.042Z,4.22
2023-03-12T11:35:19.063Z,4.41
2023-03-12T11:36:19.026Z,4.24
2023-03-12T11:37:19.026Z,4.32
2023-03-12T11:38:19.039Z,4.35
2023-03-12T11:39:19.009Z,4.38
2023-03-12T11:40:19.001Z,4.41
2023-03-12T11:41:18.999Z,4.37
2023-03-12T11:42:18.998Z,4.42
2023-03-12T11:43:29.247Z,4.42
2023-03-12T11:44:20.970Z,4.38
2023-03-12T11:45:18.963Z,4.48
2023-03-12T11:46:18.983Z,4.53
2023-03-12T11:47:19.004Z,4.52
2023-03-12T11:48:19.001Z,4.53
2023-03-12T11:49:18.931Z,4.59
2023-03-12T11:50:18.921Z,4.60
2023-03-12T11:51:18.917Z,4.67
2023-03-12T11:52:18.937Z,4.60
2023-03-12T11:53:18.923Z,4.67
2023-03-12T11:54:18.887Z,4.53
2023-03-12T11:55:18.891Z,4.66
2023-03-12T11:56:18.876Z,4.49
2023-03-12T11:57:18.872Z,4.45
2023-03-12T11:58:18.890Z,4.50
2023-03-12T11:59:18.853Z,4.41
2023-03-12T12:00:19.906Z,4.34
2023-03-12T12:01:18.837Z,4.34
2023-03-12T12:02:18.881Z,4.37
2023-03-12T12:03:18.874Z,4.30
2023-03-12T12:04:18.821Z,4.40
2023-03-12T12:05:18.810Z,4.37
2023-03-12T12:06:18.811Z,4.50
2023-03-12T12:07:18.798Z,4.53
2023-03-12T12:08:18.818Z,4.38
2023-03-12T12:09:18.778Z,4.53
2023-03-12T12:10:18.769Z,4.55
2023-03-12T12:11:18.767Z,4.63
2023-03-12T12:12:18.750Z,4.68
2023-03-12T12:13:18.743Z,4.71
2023-03-12T12:14:18.779Z,4.73
2023-03-12T12:15:18.732Z,4.77
2023-03-12T12:16:18.744Z,4.68
2023-03-12T12:17:18.721Z,4.68
2023-03-12T12:18:18.715Z,4.74
2023-03-12T12:19:18.740Z,4.77
2023-03-12T12:20:18.801Z,4.74
2023-03-12T12:21:18.688Z,4.84
2023-03-12T12:22:18.674Z,4.80
2023-03-12T12:23:18.689Z,4.68
2023-03-12T12:24:18.678Z,4.74
2023-03-12T12:25:18.654Z,4.84
2023-03-12T12:26:18.640Z,4.89
2023-03-12T12:27:18.634Z,4.87
2023-03-12T12:28:18.633Z,4.82
2023-03-12T12:29:18.647Z,4.67
2023-03-12T12:30:18.660Z,4.68
2023-03-12T12:31:18.636Z,4.77
2023-03-12T12:32:18.603Z,4.71
2023-03-12T12:33:18.581Z,4.74
2023-03-12T12:34:19.612Z,4.84
2023-03-12T12:35:18.569Z,4.89
2023-03-12T12:36:18.568Z,4.90
2023-03-12T12:37:18.556Z,4.92
2023-03-12T12:38:18.544Z,5.04
2023-03-12T12:39:18.576Z,4.93
2023-03-12T12:40:18.599Z,5.00
2023-03-12T12:41:18.530Z,5.04
2023-03-12T12:42:18.522Z,5.00
2023-03-12T12:43:18.509Z,4.96
2023-03-12T12:44:18.532Z,4.92
2023-03-12T12:45:18.503Z,4.93
2023-03-12T12:46:18.499Z,4.93
2023-03-12T12:47:18.506Z,4.94
2023-03-12T12:48:18.471Z,5.02
2023-03-12T12:49:18.484Z,5.14
2023-03-12T12:50:18.600Z,5.11
2023-03-12T12:51:18.446Z,4.93
2023-03-12T12:52:18.436Z,4.82
2023-03-12T12:53:18.417Z,4.90
2023-03-12T12:54:19.454Z,4.87
2023-03-12T12:55:18.413Z,4.99
2023-03-12T12:56:18.408Z,4.94
2023-03-12T12:57:18.400Z,5.12
2023-03-12T12:58:18.392Z,5.12
2023-03-12T12:59:18.405Z,5.08
2023-03-12T13:00:18.398Z,5.12
2023-03-12T13:01:18.422Z,5.20
2023-03-12T13:02:18.367Z,5.20
2023-03-12T13:03:18.365Z,5.18
2023-03-12T13:04:18.402Z,5.28
2023-03-12T13:05:18.347Z,5.28